createdAt,value
2019-03-06T00:00:44.418Z,15.90
2019-03-06T00:03:15.871Z,15.80
2019-03-06T00:05:45.763Z,16.00
2019-03-06T00:08:15.603Z,15.30
2019-03-06T00:10:45.500Z,15.50
2019-03-06T00:13:15.308Z,12.33
2019-03-06T00:15:45.178Z,13.13
2019-03-06T00:18:15.074Z,14.40
2019-03-06T00:20:45.220Z,13.43
2019-03-06T00:23:15.031Z,12.17
2019-03-06T00:25:44.867Z,12.87
2019-03-06T00:28:15.127Z,12.97
2019-03-06T00:30:45.002Z,13.77
2019-03-06T00:33:14.846Z,12.93
2019-03-06T00:35:46.304Z,12.23
2019-03-06T00:38:16.136Z,12.23
2019-03-06T00:40:47.819Z,12.30
2019-03-06T00:43:17.753Z,13.00
2019-03-06T00:45:47.583Z,11.87
2019-03-06T00:48:17.544Z,12.30
2019-03-06T00:50:47.708Z,12.70
2019-03-06T00:53:17.546Z,11.97
2019-03-06T00:55:47.440Z,12.80
2019-03-06T00:58:17.271Z,12.63
2019-03-06T01:00:47.109Z,12.03
2019-03-06T01:03:17.187Z,11.80
2019-03-06T01:05:47.083Z,12.87
2019-03-06T01:08:16.946Z,12.10
2019-03-06T01:10:46.868Z,12.87
2019-03-06T01:13:16.676Z,13.40
2019-03-06T01:15:46.650Z,13.87
2019-03-06T01:18:16.511Z,13.03
2019-03-06T01:20:46.393Z,13.33
2019-03-06T01:23:16.145Z,13.47
2019-03-06T01:25:46.315Z,13.10
2019-03-06T01:28:16.153Z,13.53
2019-03-06T01:31:05.268Z,14.67
2019-03-06T01:33:45.714Z,13.77
2019-03-06T01:36:20.036Z,14.07
2019-03-06T01:38:51.466Z,14.43
2019-03-06T01:41:25.906Z,15.27
2019-03-06T01:44:03.026Z,15.30
2019-03-06T01:46:32.866Z,14.87
2019-03-06T01:49:02.747Z,14.70
2019-03-06T01:51:32.585Z,14.87
2019-03-06T01:54:02.426Z,15.30
2019-03-06T01:56:32.350Z,15.90
2019-03-06T01:59:02.194Z,15.50
2019-03-06T02:01:33.034Z,15.70
2019-03-06T02:04:03.786Z,17.23
2019-03-06T02:06:34.925Z,16.37
2019-03-06T02:09:07.795Z,17.23
2019-03-06T02:11:37.826Z,16.23
2019-03-06T02:14:08.672Z,16.83
2019-03-06T02:16:38.483Z,15.57
2019-03-06T02:19:08.475Z,16.37
2019-03-06T02:21:38.305Z,17.23
2019-03-06T02:24:08.148Z,15.47
2019-03-06T02:26:38.342Z,15.70
2019-03-06T02:29:08.195Z,15.93
2019-03-06T02:31:38.067Z,16.97
2019-03-06T02:34:09.308Z,16.47
2019-03-06T02:36:39.088Z,15.90
2019-03-06T02:39:09.165Z,16.10
2019-03-06T02:41:39.145Z,16.93
2019-03-06T02:44:09.042Z,16.77
2019-03-06T02:46:41.145Z,16.50
2019-03-06T02:49:10.987Z,15.87
2019-03-06T02:51:40.871Z,16.67
2019-03-06T02:54:10.675Z,15.53
2019-03-06T02:56:40.545Z,16.37
2019-03-06T02:59:18.067Z,16.70
2019-03-06T03:01:55.592Z,16.33
2019-03-06T03:07:16.782Z,17.30
2019-03-06T03:09:46.705Z,17.10
2019-03-06T03:12:18.152Z,18.63
2019-03-06T03:14:48.003Z,18.30
2019-03-06T03:17:17.946Z,20.77
2019-03-06T03:19:48.131Z,18.93
2019-03-06T03:22:18.386Z,20.17
2019-03-06T03:24:48.203Z,18.90
2019-03-06T03:27:18.095Z,19.83
2019-03-06T03:29:48.345Z,20.47
2019-03-06T03:32:18.515Z,20.93
2019-03-06T03:34:48.448Z,20.00
2019-03-06T03:37:18.367Z,19.93
2019-03-06T03:39:48.226Z,21.00
2019-03-06T03:42:18.065Z,20.73
2019-03-06T03:44:50.547Z,21.20
2019-03-06T03:47:20.385Z,20.57
2019-03-06T03:49:50.233Z,20.43
2019-03-06T03:52:20.115Z,20.60
2019-03-06T03:54:49.946Z,19.70
2019-03-06T03:57:20.109Z,20.80
2019-03-06T03:59:50.107Z,19.33
2019-03-06T04:02:20.025Z,19.73
2019-03-06T04:04:50.037Z,18.37
2019-03-06T04:07:21.505Z,18.47
2019-03-06T04:09:51.345Z,17.80
2019-03-06T04:12:21.190Z,16.93
2019-03-06T04:14:51.151Z,17.70
2019-03-06T04:17:20.947Z,17.23
2019-03-06T04:19:51.106Z,17.73
2019-03-06T04:22:20.918Z,17.27
2019-03-06T04:24:50.746Z,17.67
2019-03-06T04:27:20.676Z,17.53
2019-03-06T04:29:50.787Z,17.43
2019-03-06T04:32:20.947Z,17.47
2019-03-06T04:34:50.777Z,17.90
2019-03-06T04:37:22.865Z,18.87
2019-03-06T04:39:54.333Z,18.47
2019-03-06T04:42:24.345Z,18.70
2019-03-06T04:44:55.399Z,18.77
2019-03-06T04:47:25.348Z,18.60
2019-03-06T04:49:55.196Z,19.60
2019-03-06T04:52:25.025Z,18.97
2019-03-06T04:54:54.870Z,19.63
2019-03-06T04:57:24.672Z,20.13
2019-03-06T05:00:01.792Z,19.57
2019-03-06T05:02:31.834Z,18.67
2019-03-06T05:05:01.626Z,21.00
2019-03-06T05:07:31.951Z,20.23
2019-03-06T05:10:01.755Z,20.23
2019-03-06T05:12:31.674Z,20.47
2019-03-06T05:15:01.554Z,20.93
2019-03-06T05:17:33.141Z,21.17
2019-03-06T05:20:02.989Z,20.20
2019-03-06T05:22:32.834Z,21.47
2019-03-06T05:25:02.692Z,22.27
2019-03-06T05:27:34.189Z,23.20
2019-03-06T05:30:16.146Z,22.37
2019-03-06T05:32:48.306Z,22.30
2019-03-06T05:35:36.167Z,21.97
2019-03-06T05:38:11.707Z,22.53
2019-03-06T05:40:41.706Z,22.67
2019-03-06T05:43:11.518Z,21.83
2019-03-06T05:45:41.346Z,23.10
2019-03-06T05:48:11.210Z,22.53
2019-03-06T05:50:41.075Z,22.67
2019-03-06T05:53:11.226Z,22.97
2019-03-06T05:55:41.107Z,22.17
2019-03-06T05:58:12.833Z,21.77
2019-03-06T06:00:42.665Z,22.90
2019-03-06T06:03:12.894Z,22.53
2019-03-06T06:05:42.752Z,21.67
2019-03-06T06:08:13.627Z,21.57
2019-03-06T06:10:43.466Z,20.93
2019-03-06T06:13:13.316Z,19.97
2019-03-06T06:15:43.171Z,21.07
2019-03-06T06:18:12.995Z,21.07
2019-03-06T06:20:43.267Z,21.27
2019-03-06T06:23:30.954Z,20.13
2019-03-06T06:26:00.947Z,20.03
2019-03-06T06:28:30.866Z,20.47
2019-03-06T06:31:00.800Z,21.73
2019-03-06T06:33:30.784Z,20.97
2019-03-06T06:36:00.673Z,20.03
2019-03-06T06:38:30.509Z,20.67
2019-03-06T06:41:00.746Z,20.67
2019-03-06T06:43:31.950Z,20.57
2019-03-06T06:46:03.107Z,20.77
2019-03-06T06:48:33.226Z,20.40
2019-03-06T06:51:06.226Z,19.07
2019-03-06T06:53:39.346Z,19.90
2019-03-06T06:56:21.304Z,19.67
2019-03-06T06:59:00.179Z,19.77
2019-03-06T07:01:49.505Z,19.57
2019-03-06T07:04:45.424Z,19.03
2019-03-06T07:07:20.256Z,18.93
2019-03-06T07:10:08.384Z,17.57
2019-03-06T07:12:42.918Z,18.53
2019-03-06T07:15:14.384Z,18.70
2019-03-06T07:18:02.384Z,19.03
2019-03-06T07:20:43.144Z,18.50
2019-03-06T07:23:17.576Z,17.80
2019-03-06T07:25:50.624Z,18.17
2019-03-06T07:28:25.545Z,18.00
2019-03-06T07:30:57.096Z,18.20
2019-03-06T07:33:43.664Z,18.50
2019-03-06T07:36:31.467Z,16.43
2019-03-06T07:39:02.307Z,17.97
2019-03-06T07:41:35.427Z,17.47
2019-03-06T07:44:10.033Z,17.23
2019-03-06T07:46:44.576Z,17.13
2019-03-06T07:49:22.384Z,17.37
2019-03-06T07:52:03.272Z,17.60
2019-03-06T07:54:35.024Z,17.43
2019-03-06T07:57:12.429Z,16.57
2019-03-06T07:59:42.704Z,16.30
2019-03-06T08:02:27.784Z,16.60
2019-03-06T08:04:57.864Z,17.03
2019-03-06T08:07:27.835Z,16.30
2019-03-06T08:09:57.866Z,15.40
2019-03-06T08:12:29.584Z,16.83
2019-03-06T08:15:10.616Z,15.40
2019-03-06T08:17:54.866Z,16.63
2019-03-06T08:20:32.307Z,16.00
2019-03-06T08:23:04.024Z,16.27
2019-03-06T08:25:39.584Z,16.13
2019-03-06T08:28:09.746Z,15.30
2019-03-06T08:30:43.294Z,16.00
2019-03-06T08:33:18.131Z,15.33
2019-03-06T08:35:44.944Z,16.50
2019-03-06T08:38:15.144Z,15.87
2019-03-06T08:40:46.624Z,15.40
2019-03-06T08:43:16.825Z,16.03
2019-03-06T08:46:05.224Z,15.03
2019-03-06T08:48:48.947Z,15.10
2019-03-06T08:51:20.586Z,14.40
2019-03-06T08:53:57.750Z,16.47
2019-03-06T08:56:31.904Z,14.93
2019-03-06T08:59:19.585Z,16.33
2019-03-06T09:02:00.125Z,15.40
2019-03-06T09:04:43.705Z,14.60
2019-03-06T09:07:18.543Z,14.13
2019-03-06T09:09:56.104Z,14.17
2019-03-06T09:12:36.745Z,14.07
2019-03-06T09:15:20.788Z,13.77
2019-03-06T09:17:57.984Z,14.50
2019-03-06T09:20:37.162Z,15.53
2019-03-06T09:23:06.145Z,14.30
2019-03-06T09:25:52.976Z,14.23
2019-03-06T09:28:27.824Z,14.33
2019-03-06T09:31:02.224Z,13.60
2019-03-06T09:33:36.705Z,14.03
2019-03-06T09:36:21.505Z,14.50
2019-03-06T09:38:53.504Z,13.65
2019-03-06T09:41:25.184Z,14.18
2019-03-06T09:44:13.265Z,13.83
2019-03-06T09:46:45.184Z,12.90
2019-03-06T09:49:19.624Z,13.83
2019-03-06T09:52:00.064Z,14.87
2019-03-06T09:54:37.865Z,13.28
2019-03-06T09:57:09.545Z,12.63
2019-03-06T09:59:41.106Z,12.73
2019-03-06T10:02:18.904Z,12.85
2019-03-06T10:05:18.506Z,11.88
2019-03-06T10:07:50.871Z,11.73
2019-03-06T10:10:47.588Z,11.83
2019-03-06T10:13:23.193Z,11.75
2019-03-06T10:15:54.670Z,11.40
2019-03-06T10:18:26.877Z,12.13
2019-03-06T10:20:58.626Z,11.83
2019-03-06T10:23:28.707Z,11.77
2019-03-06T10:25:58.866Z,12.50
2019-03-06T10:28:30.744Z,12.25
2019-03-06T10:31:02.706Z,12.85
2019-03-06T10:33:32.512Z,13.60
2019-03-06T10:36:02.858Z,12.13
2019-03-06T10:38:32.944Z,11.65
2019-03-06T10:41:04.544Z,10.77
2019-03-06T10:43:37.185Z,10.40
2019-03-06T10:46:07.752Z,10.15
2019-03-06T10:48:37.824Z,10.50
2019-03-06T10:51:08.266Z,10.72
2019-03-06T10:53:41.583Z,10.37
2019-03-06T10:56:10.505Z,10.90
2019-03-06T10:58:42.586Z,10.68
2019-03-06T11:01:12.626Z,10.82
2019-03-06T11:03:44.309Z,11.48
2019-03-06T11:06:16.258Z,12.63
2019-03-06T11:08:46.415Z,11.90
2019-03-06T11:11:16.766Z,11.60
2019-03-06T11:13:46.641Z,11.75
2019-03-06T11:16:17.971Z,12.10
2019-03-06T11:18:48.130Z,11.85
2019-03-06T11:21:18.049Z,12.15
2019-03-06T11:23:48.248Z,13.18
2019-03-06T11:26:18.224Z,11.18
2019-03-06T11:28:48.282Z,10.38
2019-03-06T11:31:20.214Z,10.35
2019-03-06T11:33:50.219Z,10.70
2019-03-06T11:36:20.642Z,11.63
2019-03-06T11:38:50.522Z,11.45
2019-03-06T11:41:20.409Z,10.88
2019-03-06T11:43:51.440Z,10.60
2019-03-06T11:46:23.235Z,10.98
2019-03-06T11:48:53.068Z,10.65
2019-03-06T11:51:24.130Z,10.50
2019-03-06T11:53:54.128Z,10.55
2019-03-06T11:56:24.012Z,10.68
2019-03-06T11:58:55.704Z,10.78
2019-03-06T12:01:26.968Z,11.08
2019-03-06T12:03:58.240Z,10.25
2019-03-06T12:06:28.093Z,9.90
2019-03-06T12:08:58.142Z,10.20
2019-03-06T12:11:28.422Z,10.23
2019-03-06T12:13:58.368Z,9.60
2019-03-06T12:16:28.377Z,9.83
2019-03-06T12:18:58.250Z,9.40
2019-03-06T12:21:28.102Z,9.10
2019-03-06T12:23:58.171Z,8.78
2019-03-06T12:26:28.472Z,8.28
2019-03-06T12:28:58.312Z,8.18
2019-03-06T12:31:28.171Z,8.03
2019-03-06T12:33:57.990Z,8.70
2019-03-06T12:36:28.134Z,8.78
2019-03-06T12:38:58.279Z,7.60
2019-03-06T12:41:28.195Z,7.50
2019-03-06T12:43:58.146Z,7.60
2019-03-06T12:46:28.199Z,7.33
2019-03-06T12:48:59.023Z,7.40
2019-03-06T12:51:29.406Z,7.22
2019-03-06T12:53:59.299Z,6.47
2019-03-06T12:56:29.432Z,7.00
2019-03-06T12:58:59.351Z,6.50
2019-03-06T13:01:29.270Z,6.72
2019-03-06T13:03:59.132Z,7.80
2019-03-06T13:06:29.082Z,6.55
2019-03-06T13:09:00.371Z,6.62
2019-03-06T13:11:31.824Z,6.58
2019-03-06T13:14:01.658Z,6.62
2019-03-06T13:16:31.482Z,6.85
2019-03-06T13:19:01.676Z,6.58
2019-03-06T13:21:31.555Z,6.40
2019-03-06T13:24:01.375Z,6.58
2019-03-06T13:26:31.262Z,6.33
2019-03-06T13:29:03.110Z,5.62
2019-03-06T13:31:33.356Z,5.72
2019-03-06T13:34:10.874Z,5.85
2019-03-06T13:36:42.498Z,5.80
2019-03-06T13:39:12.498Z,5.25
2019-03-06T13:41:42.559Z,5.45
2019-03-06T13:44:12.654Z,5.70
2019-03-06T13:46:42.514Z,5.65
2019-03-06T13:49:12.366Z,6.58
2019-03-06T13:51:42.422Z,6.08
2019-03-06T13:54:12.241Z,4.80
2019-03-06T13:56:43.182Z,4.47
2019-03-06T13:59:13.169Z,4.60
2019-03-06T14:01:42.972Z,4.97
2019-03-06T14:04:12.888Z,4.67
2019-03-06T14:06:44.941Z,4.78
2019-03-06T14:09:18.875Z,4.90
2019-03-06T14:11:49.341Z,4.87
2019-03-06T14:14:19.570Z,4.80
2019-03-06T14:16:49.648Z,4.80
2019-03-06T14:19:19.465Z,4.72
2019-03-06T14:21:49.500Z,5.05
2019-03-06T14:24:19.664Z,5.53
2019-03-06T14:26:49.518Z,4.30
2019-03-06T14:29:19.310Z,4.47
2019-03-06T14:31:49.136Z,4.42
2019-03-06T14:34:19.033Z,4.78
2019-03-06T14:36:50.518Z,4.75
2019-03-06T14:39:23.012Z,4.85
2019-03-06T14:41:56.643Z,3.95
2019-03-06T14:44:28.405Z,5.00
2019-03-06T14:46:59.152Z,5.30
2019-03-06T14:49:30.448Z,4.12
2019-03-06T14:52:07.264Z,4.20
2019-03-06T14:54:32.368Z,3.58
2019-03-06T14:57:02.566Z,3.27
2019-03-06T14:59:32.503Z,3.72
2019-03-06T15:02:03.481Z,4.40
2019-03-06T15:04:33.408Z,3.60
2019-03-06T15:07:03.273Z,3.62
2019-03-06T15:09:33.144Z,3.55
2019-03-06T15:12:04.434Z,4.00
2019-03-06T15:14:36.614Z,4.37
2019-03-06T15:17:05.935Z,4.30
2019-03-06T15:19:35.814Z,5.03
2019-03-06T15:22:05.960Z,3.87
2019-03-06T15:24:41.310Z,4.42
2019-03-06T15:27:07.494Z,3.87
2019-03-06T15:29:37.682Z,4.85
2019-03-06T15:32:07.643Z,4.90
2019-03-06T15:34:37.842Z,4.72
2019-03-06T15:37:08.066Z,4.42
2019-03-06T15:39:43.565Z,3.55
2019-03-06T15:42:10.166Z,3.95
2019-03-06T15:44:40.890Z,4.65
2019-03-06T15:47:11.080Z,3.65
2019-03-06T15:49:42.235Z,4.00
2019-03-06T15:52:13.949Z,3.90
2019-03-06T15:54:44.028Z,4.13
2019-03-06T15:57:17.574Z,3.50
2019-03-06T15:59:48.072Z,3.80
2019-03-06T16:02:19.245Z,4.07
2019-03-06T16:04:49.612Z,4.50
2019-03-06T16:07:20.808Z,4.43
2019-03-06T16:09:51.256Z,4.30
2019-03-06T16:12:22.854Z,4.13
2019-03-06T16:14:54.226Z,5.10
2019-03-06T16:17:24.267Z,4.33
2019-03-06T16:19:55.966Z,4.47
2019-03-06T16:22:27.733Z,4.00
2019-03-06T16:24:58.226Z,4.60
2019-03-06T16:27:40.917Z,4.63
2019-03-06T16:30:16.922Z,4.97
2019-03-06T16:32:48.648Z,5.90
2019-03-06T16:35:18.708Z,7.10
2019-03-06T16:37:49.830Z,6.80
2019-03-06T16:40:26.406Z,6.77
2019-03-06T16:42:57.880Z,6.70
2019-03-06T16:45:31.450Z,5.93
2019-03-06T16:48:03.162Z,7.00
2019-03-06T16:50:33.685Z,6.70
2019-03-06T16:53:03.994Z,6.07
2019-03-06T16:55:34.802Z,5.47
2019-03-06T16:58:05.160Z,7.77
2019-03-06T17:00:37.222Z,6.03
2019-03-06T17:03:09.359Z,6.07
2019-03-06T17:05:40.332Z,7.10
2019-03-06T17:08:10.408Z,6.30
2019-03-06T17:10:40.900Z,7.00
2019-03-06T17:13:11.455Z,8.00
2019-03-06T17:15:42.052Z,7.63
2019-03-06T17:18:12.452Z,8.47
2019-03-06T17:20:42.846Z,9.03
2019-03-06T17:23:13.030Z,8.77
2019-03-06T17:25:45.780Z,9.50
2019-03-06T17:28:16.191Z,9.37
2019-03-06T17:30:46.676Z,9.67
2019-03-06T17:33:17.721Z,9.80
2019-03-06T17:35:48.041Z,9.50
2019-03-06T17:38:19.543Z,9.70
2019-03-06T17:40:49.948Z,9.77
2019-03-06T17:43:20.656Z,9.57
2019-03-06T17:45:52.348Z,10.00
2019-03-06T17:48:26.485Z,10.70
2019-03-06T17:50:56.072Z,10.50
2019-03-06T17:53:27.388Z,11.00
2019-03-06T17:55:57.968Z,11.47
2019-03-06T17:58:30.519Z,11.73
2019-03-06T18:01:10.125Z,12.57
2019-03-06T18:03:50.715Z,11.03
2019-03-06T18:06:20.480Z,11.40
2019-03-06T18:08:50.657Z,12.73
2019-03-06T18:11:21.013Z,12.13
2019-03-06T18:13:52.958Z,11.07
2019-03-06T18:16:23.609Z,12.90
2019-03-06T18:18:54.411Z,13.30
2019-03-06T18:21:26.061Z,14.27
2019-03-06T18:24:01.142Z,13.53
2019-03-06T18:26:31.696Z,14.47
2019-03-06T18:29:02.288Z,14.47
2019-03-06T18:31:32.886Z,15.67
2019-03-06T18:34:03.207Z,19.23
2019-03-06T18:36:35.373Z,17.23
2019-03-06T18:39:08.617Z,19.20
2019-03-06T18:41:39.513Z,19.80
2019-03-06T18:44:09.751Z,20.07
2019-03-06T18:46:54.011Z,20.57
2019-03-06T18:49:25.143Z,20.13
2019-03-06T18:51:55.552Z,20.40
2019-03-06T18:54:26.059Z,20.53
2019-03-06T18:56:57.487Z,20.63
2019-03-06T18:59:28.322Z,22.07
2019-03-06T19:01:58.900Z,22.17
2019-03-06T19:04:29.225Z,22.33
2019-03-06T19:07:01.217Z,22.43
2019-03-06T19:09:32.133Z,23.33
2019-03-06T19:12:04.659Z,22.73
2019-03-06T19:14:35.561Z,21.87
2019-03-06T19:17:06.733Z,23.53
2019-03-06T19:19:37.173Z,23.73
2019-03-06T19:22:13.021Z,24.30
2019-03-06T19:24:43.173Z,23.93
2019-03-06T19:27:13.775Z,24.37
2019-03-06T19:29:45.991Z,25.33
2019-03-06T19:32:16.493Z,25.73
2019-03-06T19:34:48.572Z,26.97
2019-03-06T19:37:19.178Z,27.30
2019-03-06T19:39:49.857Z,28.53
2019-03-06T19:42:20.545Z,28.77
2019-03-06T19:44:51.144Z,27.73
2019-03-06T19:47:23.889Z,26.67
2019-03-06T19:49:54.797Z,25.00
2019-03-06T19:52:25.596Z,26.17
2019-03-06T19:54:58.822Z,25.07
2019-03-06T19:57:32.727Z,25.00
2019-03-06T20:00:06.749Z,25.43
2019-03-06T20:02:39.287Z,25.27
2019-03-06T20:05:10.505Z,27.73
2019-03-06T20:07:52.733Z,26.87
2019-03-06T20:10:26.615Z,27.70
2019-03-06T20:13:01.169Z,28.37
2019-03-06T20:15:32.656Z,30.63
2019-03-06T20:18:06.704Z,33.97
2019-03-06T20:20:38.816Z,31.30
2019-03-06T20:23:11.164Z,32.03
2019-03-06T20:25:43.327Z,31.00
2019-03-06T20:28:15.296Z,30.43
2019-03-06T20:30:46.103Z,35.13
2019-03-06T20:33:19.506Z,36.60
2019-03-06T20:35:50.049Z,33.67
2019-03-06T20:38:20.863Z,35.07
2019-03-06T20:40:52.407Z,37.00
2019-03-06T20:43:23.063Z,38.97
2019-03-06T20:45:53.829Z,36.07
2019-03-06T20:48:24.494Z,37.53
2019-03-06T20:50:57.391Z,36.90
2019-03-06T20:53:28.016Z,36.40
2019-03-06T20:56:02.335Z,37.37
2019-03-06T20:58:34.283Z,38.00
2019-03-06T21:01:07.783Z,38.00
2019-03-06T21:03:38.702Z,38.33
2019-03-06T21:06:09.343Z,39.83
2019-03-06T21:08:40.895Z,38.00
2019-03-06T21:11:11.502Z,37.57
2019-03-06T21:13:42.700Z,40.13
2019-03-06T21:16:19.093Z,39.37
2019-03-06T21:18:51.451Z,37.50
2019-03-06T21:21:21.559Z,37.03
2019-03-06T21:23:55.331Z,36.13
2019-03-06T21:26:28.825Z,35.73
2019-03-06T21:29:02.223Z,38.30
2019-03-06T21:31:32.571Z,37.40
2019-03-06T21:34:02.867Z,35.00
2019-03-06T21:36:37.545Z,34.23
2019-03-06T21:39:22.131Z,33.73
2019-03-06T21:41:52.687Z,35.13
2019-03-06T21:44:22.914Z,31.40
2019-03-06T21:46:54.864Z,32.60
2019-03-06T21:49:25.636Z,31.30
2019-03-06T21:51:57.244Z,31.27
2019-03-06T21:54:27.397Z,32.37
2019-03-06T21:56:57.591Z,30.93
2019-03-06T21:59:29.140Z,29.53
2019-03-06T22:01:59.248Z,29.00
2019-03-06T22:04:29.324Z,29.73
2019-03-06T22:06:59.612Z,28.77
2019-03-06T22:09:29.676Z,28.93
2019-03-06T22:12:00.444Z,30.47
2019-03-06T22:14:31.959Z,30.77
2019-03-06T22:17:01.884Z,31.27
2019-03-06T22:19:33.367Z,31.23
2019-03-06T22:22:03.399Z,31.50
2019-03-06T22:24:34.964Z,30.73
2019-03-06T22:27:06.443Z,31.47
2019-03-06T22:29:36.407Z,31.23
2019-03-06T22:32:06.387Z,31.37
2019-03-06T22:34:36.376Z,30.43
2019-03-06T22:37:06.337Z,30.30
2019-03-06T22:39:36.314Z,30.03
2019-03-06T22:42:07.553Z,30.13
2019-03-06T22:44:37.495Z,31.43
2019-03-06T22:47:09.106Z,32.50
2019-03-06T22:49:39.144Z,32.67
2019-03-06T22:52:09.108Z,31.03
2019-03-06T22:54:39.114Z,32.60
2019-03-06T22:57:09.054Z,32.57
2019-03-06T22:59:38.939Z,31.00
2019-03-06T23:02:09.746Z,30.67
2019-03-06T23:04:39.707Z,30.17
2019-03-06T23:07:09.696Z,32.00
2019-03-06T23:09:39.833Z,32.50
2019-03-06T23:12:09.757Z,33.13
2019-03-06T23:14:39.903Z,30.70
2019-03-06T23:17:09.827Z,31.70
2019-03-06T23:19:39.749Z,30.23
2019-03-06T23:22:09.795Z,29.97
2019-03-06T23:24:39.759Z,28.80
2019-03-06T23:27:10.070Z,29.30
2019-03-06T23:29:40.299Z,28.97
2019-03-06T23:32:11.298Z,28.20
2019-03-06T23:34:41.274Z,27.60
2019-03-06T23:37:12.860Z,26.83
2019-03-06T23:39:43.130Z,26.77
2019-03-06T23:42:13.814Z,28.67
2019-03-06T23:44:43.806Z,27.47
2019-03-06T23:47:13.856Z,28.60
2019-03-06T23:49:43.728Z,28.87
2019-03-06T23:52:27.974Z,28.50
2019-03-06T23:54:57.927Z,29.43
2019-03-06T23:57:27.946Z,29.97
2019-03-06T23:59:57.926Z,30.40
